Terminal Aerodrome Forecast
Issued by NWS Charleston, WV

Current Version | Previous Version | Text Only | Print | Product List | Glossary Off
Versions: 1 2 3 4 5 6 7 8 9 10 11 12 13 14 15 16 17 18 19 20 21

000
FTUS41 KRLX 270500
TAFCRW
TAF
KCRW 270524Z 2706/2806 00000KT P6SM BKN150
     FM271500 19005KT P6SM BKN100
     FM280000 00000KT P6SM OVC150
     FM280500 00000KT P6SM OVC030=

USA.gov is the U.S. government's official web portal to all federal, state and local government web resources and services.